Time;durP1;ratioP1;P1;durP2;ratioP2;P2;SDS_P1;SDS_P2;PMS_P1;PMS_P2;Temp;Humidity;BMP_temperature;BMP_pressure;BME280_temperature;BME280_humidity;BME280_pressure;Samples;Min_cycle;Max_cycle;Signal;HPM_P1;HPM_P2
2022/06/26 00:00:45;;;;;;;4.20;2.60;;;18.00;99.90;;;;;;4935833;29;20094;-85
2022/06/26 00:03:10;;;;;;;4.57;2.90;;;18.00;99.90;;;;;;4938759;29;20027;-85
2022/06/26 00:05:36;;;;;;;4.13;2.90;;;18.00;99.90;;;;;;4937520;29;20132;-86
2022/06/26 00:08:02;;;;;;;5.32;3.20;;;17.90;99.90;;;;;;4936572;29;20036;-85
2022/06/26 00:10:28;;;;;;;5.70;3.15;;;17.90;99.90;;;;;;4935320;29;20427;-85
2022/06/26 00:12:54;;;;;;;3.47;2.55;;;17.90;99.90;;;;;;4936922;29;20032;-86
2022/06/26 00:15:20;;;;;;;4.82;2.75;;;17.90;99.90;;;;;;4935494;29;20040;-86
2022/06/26 00:17:45;;;;;;;4.72;2.70;;;17.90;99.90;;;;;;4921407;29;20104;-85
2022/06/26 00:20:11;;;;;;;3.92;2.38;;;17.90;99.90;;;;;;4917745;29;20060;-86
2022/06/26 00:22:37;;;;;;;5.45;2.47;;;17.80;99.90;;;;;;4916462;29;20048;-85
2022/06/26 00:25:03;;;;;;;5.72;2.15;;;17.80;99.90;;;;;;4935942;29;20467;-85
2022/06/26 00:27:29;;;;;;;1.88;1.38;;;17.80;99.90;;;;;;4936618;29;20030;-85
2022/06/26 00:29:55;;;;;;;4.00;1.90;;;17.80;99.90;;;;;;4935203;29;20115;-85
2022/06/26 00:32:20;;;;;;;3.53;1.67;;;17.80;99.90;;;;;;4935194;29;20051;-85
2022/06/26 00:34:46;;;;;;;2.38;1.50;;;17.80;99.90;;;;;;4936241;29;20023;-85
2022/06/26 00:37:12;;;;;;;2.85;1.60;;;17.80;99.90;;;;;;4936605;29;20079;-85
2022/06/26 00:39:37;;;;;;;5.03;1.52;;;17.80;99.90;;;;;;4938706;29;20024;-85
2022/06/26 00:42:03;;;;;;;4.22;1.63;;;17.80;99.90;;;;;;4936384;29;20030;-85
2022/06/26 00:44:29;;;;;;;5.05;1.85;;;17.80;99.90;;;;;;4936382;29;20098;-85
2022/06/26 00:46:55;;;;;;;2.78;1.40;;;17.80;99.90;;;;;;4935882;29;20400;-86
2022/06/26 00:49:21;;;;;;;5.00;1.40;;;17.70;99.90;;;;;;4936144;29;20034;-85
2022/06/26 00:51:51;;;;;;;2.83;1.48;;;17.80;99.90;;;;;;4934493;29;20034;-86
2022/06/26 00:54:18;;;;;;;5.95;1.33;;;17.80;99.90;;;;;;4935954;29;20477;-86
2022/06/26 00:56:45;;;;;;;3.83;1.52;;;17.70;99.90;;;;;;4934675;29;20428;-86
2022/06/26 00:59:10;;;;;;;2.65;1.33;;;17.70;99.90;;;;;;4936006;29;20039;-86
2022/06/26 01:01:36;;;;;;;2.33;1.45;;;17.70;99.90;;;;;;4935790;29;20019;-85
2022/06/26 01:04:05;;;;;;;3.17;1.55;;;17.70;99.90;;;;;;4935784;29;20028;-86
2022/06/26 01:06:31;;;;;;;4.20;1.38;;;17.70;99.90;;;;;;4935978;29;20027;-86
2022/06/26 01:08:58;;;;;;;6.70;1.45;;;17.70;99.90;;;;;;4935601;29;20035;-86
2022/06/26 01:11:27;;;;;;;2.30;1.70;;;17.60;99.90;;;;;;4936768;29;20447;-86
2022/06/26 01:13:57;;;;;;;4.60;1.65;;;17.60;99.90;;;;;;4937295;29;20055;-85
2022/06/26 01:16:24;;;;;;;3.60;1.58;;;17.60;99.90;;;;;;4935460;29;20026;-86
2022/06/26 01:18:52;;;;;;;3.55;1.50;;;17.60;99.90;;;;;;4935271;29;20480;-86
2022/06/26 01:21:19;;;;;;;1.45;1.15;;;17.50;99.90;;;;;;4933942;29;20023;-86
2022/06/26 01:23:46;;;;;;;4.35;1.20;;;17.40;99.90;;;;;;4934253;29;20563;-86
2022/06/26 01:26:12;;;;;;;4.28;1.38;;;17.40;99.90;;;;;;4934400;29;20038;-86
2022/06/26 01:28:38;;;;;;;2.08;1.15;;;17.40;99.90;;;;;;4935568;29;20048;-85
2022/06/26 01:31:04;;;;;;;2.30;1.10;;;17.30;99.90;;;;;;4935359;29;20028;-86
2022/06/26 01:33:30;;;;;;;2.00;1.23;;;17.30;99.90;;;;;;4935200;29;20392;-85
2022/06/26 01:35:56;;;;;;;3.03;1.02;;;17.20;99.90;;;;;;4935471;29;20051;-85
2022/06/26 01:38:23;;;;;;;3.50;1.10;;;17.20;99.90;;;;;;4935375;29;20559;-85
2022/06/26 01:40:54;;;;;;;3.95;1.00;;;17.20;99.90;;;;;;4935298;29;20032;-85
2022/06/26 01:43:29;;;;;;;3.17;1.20;;;17.20;99.90;;;;;;4935650;29;20031;-85
2022/06/26 01:45:57;;;;;;;2.83;1.30;;;17.20;99.90;;;;;;4934877;29;20395;-85
2022/06/26 01:48:26;;;;;;;3.15;1.20;;;17.20;99.90;;;;;;4935067;29;20054;-85
2022/06/26 01:50:54;;;;;;;3.10;1.00;;;17.20;99.90;;;;;;4935402;29;20445;-85
2022/06/26 01:53:20;;;;;;;6.18;1.20;;;17.10;99.90;;;;;;4934261;29;20035;-85
2022/06/26 01:55:46;;;;;;;2.20;1.10;;;17.20;99.90;;;;;;4935453;29;20020;-86
2022/06/26 01:58:13;;;;;;;2.03;1.30;;;17.10;99.90;;;;;;4935170;29;20396;-85
2022/06/26 02:00:41;;;;;;;4.47;1.35;;;17.10;99.90;;;;;;4933596;29;20127;-85
2022/06/26 02:03:08;;;;;;;5.88;1.27;;;17.00;99.90;;;;;;4935316;29;20035;-85
2022/06/26 02:05:35;;;;;;;3.03;1.40;;;17.10;99.90;;;;;;4935257;29;20107;-85
2022/06/26 02:08:00;;;;;;;2.08;1.38;;;17.10;99.90;;;;;;4934949;29;20032;-85
2022/06/26 02:15:57;;;;;;;4.15;1.52;;;17.00;99.90;;;;;;4934732;29;20416;-85
2022/06/26 02:18:23;;;;;;;4.03;1.45;;;17.10;99.90;;;;;;4935085;29;20484;-84
2022/06/26 02:20:50;;;;;;;3.30;1.42;;;17.10;99.90;;;;;;4935670;29;20027;-85
2022/06/26 02:23:16;;;;;;;3.30;1.30;;;17.10;99.90;;;;;;4935510;29;20024;-85
2022/06/26 02:25:42;;;;;;;3.53;1.70;;;17.00;99.90;;;;;;4915396;29;20489;-85
2022/06/26 02:28:08;;;;;;;2.63;1.40;;;17.00;99.90;;;;;;4918672;29;20032;-85
2022/06/26 02:30:35;;;;;;;2.80;1.33;;;17.10;99.90;;;;;;4934866;29;20031;-85
2022/06/26 02:33:00;;;;;;;8.98;1.85;;;17.10;99.90;;;;;;4936865;29;20142;-85
2022/06/26 02:35:27;;;;;;;6.22;1.67;;;17.10;99.90;;;;;;4938639;29;20107;-85
2022/06/26 02:37:54;;;;;;;4.65;1.65;;;17.00;99.90;;;;;;4937327;29;20079;-85
2022/06/26 02:40:27;;;;;;;3.30;1.45;;;17.00;99.90;;;;;;4938519;29;20391;-84
2022/06/26 02:42:53;;;;;;;3.10;1.65;;;16.90;99.90;;;;;;4938183;29;20435;-84
2022/06/26 02:45:19;;;;;;;3.15;1.55;;;16.90;99.90;;;;;;4938459;29;20063;-85
2022/06/26 02:47:46;;;;;;;4.63;1.70;;;16.90;99.90;;;;;;4938690;29;20476;-85
2022/06/26 02:50:12;;;;;;;4.97;1.70;;;16.90;99.90;;;;;;4937211;29;20451;-84
2022/06/26 02:52:39;;;;;;;4.82;1.23;;;17.00;99.90;;;;;;4938218;29;20036;-85
2022/06/26 02:55:06;;;;;;;3.88;2.05;;;16.90;99.90;;;;;;4936965;29;20039;-85
2022/06/26 02:57:31;;;;;;;5.63;1.95;;;16.90;99.90;;;;;;4938831;29;20524;-86
2022/06/26 02:59:57;;;;;;;5.40;1.80;;;17.00;99.90;;;;;;4934288;29;20058;-84
2022/06/26 03:02:24;;;;;;;6.00;1.90;;;16.90;99.90;;;;;;4935796;29;20027;-85
2022/06/26 03:04:51;;;;;;;7.15;1.80;;;16.90;99.90;;;;;;4937131;29;20023;-85
2022/06/26 03:07:17;;;;;;;4.70;1.60;;;16.90;99.90;;;;;;4936697;29;20032;-84
2022/06/26 03:09:43;;;;;;;4.10;2.00;;;16.80;99.90;;;;;;4936174;29;20047;-84
2022/06/26 03:12:09;;;;;;;3.08;1.45;;;16.90;99.90;;;;;;4917463;29;20035;-84
2022/06/26 03:14:35;;;;;;;2.42;1.40;;;16.80;99.90;;;;;;4927585;29;20071;-85
2022/06/26 03:17:01;;;;;;;2.97;1.75;;;16.80;99.90;;;;;;4937767;29;20431;-84
2022/06/26 03:19:27;;;;;;;6.10;1.73;;;16.80;99.90;;;;;;4937966;29;20083;-85
2022/06/26 03:21:53;;;;;;;4.85;1.60;;;16.80;99.90;;;;;;4937955;29;20432;-85
2022/06/26 03:24:19;;;;;;;3.80;1.48;;;16.70;99.90;;;;;;4929680;29;20071;-85
2022/06/26 03:26:45;;;;;;;2.05;1.33;;;16.70;99.90;;;;;;4934857;29;20083;-85
2022/06/26 03:29:11;;;;;;;3.15;1.83;;;16.70;99.90;;;;;;4937422;29;20039;-85
2022/06/26 03:31:37;;;;;;;5.80;1.90;;;16.80;99.90;;;;;;4938610;29;20492;-85
2022/06/26 03:34:03;;;;;;;3.35;1.73;;;16.80;99.90;;;;;;4937442;29;20039;-85
2022/06/26 03:36:29;;;;;;;3.28;1.80;;;16.80;99.90;;;;;;4919340;29;20047;-84
2022/06/26 03:38:56;;;;;;;3.42;1.85;;;16.80;99.90;;;;;;4918479;29;20032;-85
2022/06/26 03:41:22;;;;;;;6.88;1.60;;;16.80;99.90;;;;;;4916939;29;20119;-85
2022/06/26 03:43:49;;;;;;;6.68;1.67;;;16.80;99.90;;;;;;4918392;29;20036;-84
2022/06/26 03:46:15;;;;;;;4.95;1.85;;;16.80;99.90;;;;;;4918626;29;20527;-84
2022/06/26 03:48:41;;;;;;;5.10;2.00;;;16.80;99.90;;;;;;4918286;29;20473;-84
2022/06/26 03:51:07;;;;;;;6.35;2.30;;;16.70;99.90;;;;;;4918297;29;20024;-84
2022/06/26 03:53:34;;;;;;;8.18;2.10;;;16.70;99.90;;;;;;4918014;29;20385;-84
2022/06/26 03:56:00;;;;;;;4.75;2.45;;;16.70;99.90;;;;;;4918134;29;20477;-83
2022/06/26 03:58:26;;;;;;;4.80;1.98;;;16.60;99.90;;;;;;4916777;29;20028;-84
2022/06/26 04:00:52;;;;;;;6.43;2.13;;;16.70;99.90;;;;;;4916959;29;20030;-84
2022/06/26 04:03:18;;;;;;;6.68;2.45;;;16.70;99.90;;;;;;4918038;29;20079;-84
2022/06/26 04:05:44;;;;;;;7.20;2.42;;;16.60;99.90;;;;;;4918538;29;20021;-84
2022/06/26 04:08:10;;;;;;;2.65;1.80;;;16.70;99.90;;;;;;4932898;29;20061;-84
2022/06/26 04:10:36;;;;;;;6.57;2.50;;;16.70;99.90;;;;;;4917283;29;20055;-84
2022/06/26 04:13:05;;;;;;;7.00;2.20;;;16.70;99.90;;;;;;4916584;29;20091;-84
2022/06/26 04:15:32;;;;;;;3.45;2.17;;;16.70;99.90;;;;;;4923781;29;20034;-85
2022/06/26 04:17:58;;;;;;;7.55;2.28;;;16.70;99.90;;;;;;4935252;29;20035;-84
2022/06/26 04:20:24;;;;;;;2.88;1.80;;;16.70;99.90;;;;;;4936646;29;20028;-84
2022/06/26 04:23:04;;;;;;;5.22;2.20;;;16.70;99.90;;;;;;4921427;29;20028;-84
2022/06/26 04:25:31;;;;;;;7.55;2.42;;;16.80;99.90;;;;;;4917320;29;20039;-84
2022/06/26 04:27:58;;;;;;;6.75;2.08;;;16.80;99.90;;;;;;4917733;29;20400;-84
2022/06/26 04:30:24;;;;;;;6.63;2.22;;;16.70;99.90;;;;;;4916198;29;20504;-84
2022/06/26 04:32:50;;;;;;;7.40;1.92;;;16.70;99.90;;;;;;4917580;29;20029;-85
2022/06/26 04:35:16;;;;;;;5.47;2.10;;;16.60;99.90;;;;;;4917368;29;20032;-85
2022/06/26 04:37:43;;;;;;;3.45;1.90;;;16.70;99.90;;;;;;4917633;29;20028;-84
2022/06/26 04:40:11;;;;;;;3.90;2.15;;;16.70;99.90;;;;;;4915752;29;20024;-84
2022/06/26 04:42:38;;;;;;;3.42;2.10;;;16.70;99.90;;;;;;4918045;29;20028;-83
2022/06/26 04:45:04;;;;;;;4.93;2.00;;;16.60;99.90;;;;;;4916325;29;20032;-84
2022/06/26 04:47:30;;;;;;;4.38;2.15;;;16.70;99.90;;;;;;4919293;29;20035;-84
2022/06/26 04:49:55;;;;;;;4.07;1.90;;;16.70;99.90;;;;;;4936320;29;20035;-84
2022/06/26 04:52:21;;;;;;;5.60;2.00;;;16.60;99.90;;;;;;4936151;29;20467;-84
2022/06/26 04:54:47;;;;;;;5.25;2.25;;;16.70;99.90;;;;;;4932746;29;20445;-85
2022/06/26 04:57:13;;;;;;;6.30;2.35;;;16.70;99.90;;;;;;4933359;29;20086;-85
2022/06/26 04:59:38;;;;;;;7.55;1.92;;;16.70;99.90;;;;;;4936116;29;20024;-84
2022/06/26 05:02:06;;;;;;;4.90;1.63;;;16.60;99.90;;;;;;4936208;29;20034;-84
2022/06/26 05:04:32;;;;;;;4.57;1.60;;;16.60;99.90;;;;;;4935721;29;20032;-84
2022/06/26 05:06:58;;;;;;;4.57;1.95;;;16.60;99.90;;;;;;4935848;29;20407;-84
2022/06/26 05:09:25;;;;;;;5.30;2.05;;;16.70;99.90;;;;;;4935118;29;20127;-85
2022/06/26 05:11:51;;;;;;;2.67;1.70;;;16.70;99.90;;;;;;4935903;29;20039;-85
2022/06/26 05:14:18;;;;;;;3.25;1.73;;;16.70;99.90;;;;;;4935527;29;20036;-85
2022/06/26 05:16:44;;;;;;;7.00;2.30;;;16.70;99.90;;;;;;4936286;29;20031;-85
2022/06/26 05:19:10;;;;;;;3.95;1.92;;;16.70;99.90;;;;;;4936224;29;20031;-84
2022/06/26 05:21:36;;;;;;;4.97;2.28;;;16.70;99.90;;;;;;4935719;29;20488;-84
2022/06/26 05:24:01;;;;;;;3.72;1.75;;;16.70;99.90;;;;;;4934041;29;20031;-85
2022/06/26 05:26:27;;;;;;;4.50;1.83;;;16.80;99.90;;;;;;4934278;29;20031;-84
2022/06/26 05:28:53;;;;;;;5.15;2.55;;;16.70;99.90;;;;;;4934133;29;20107;-84
2022/06/26 05:31:19;;;;;;;3.95;2.17;;;16.80;99.90;;;;;;4924742;29;20027;-84
2022/06/26 05:33:45;;;;;;;5.75;2.42;;;16.70;99.90;;;;;;4935454;29;20519;-85
2022/06/26 05:36:11;;;;;;;3.78;2.30;;;16.70;99.90;;;;;;4935640;29;20050;-85
2022/06/26 05:38:38;;;;;;;5.18;2.70;;;16.70;99.90;;;;;;4935127;29;20098;-85
2022/06/26 05:41:04;;;;;;;4.93;2.50;;;16.60;99.90;;;;;;4935682;29;20075;-84
2022/06/26 05:43:30;;;;;;;4.60;2.58;;;16.60;99.90;;;;;;4934885;29;20012;-82
2022/06/26 05:45:56;;;;;;;3.15;2.00;;;16.60;99.90;;;;;;4935362;29;20120;-85
2022/06/26 05:48:24;;;;;;;3.88;2.05;;;16.70;99.90;;;;;;4935304;29;20027;-85
2022/06/26 05:50:50;;;;;;;5.18;2.20;;;16.60;99.90;;;;;;4934372;29;20028;-84
2022/06/26 05:53:16;;;;;;;6.00;2.25;;;16.60;99.90;;;;;;4934417;29;20020;-84
2022/06/26 05:55:42;;;;;;;4.03;1.92;;;16.60;99.90;;;;;;4935158;29;20028;-84
2022/06/26 05:58:08;;;;;;;5.53;2.13;;;16.60;99.90;;;;;;4935633;29;20078;-85
2022/06/26 06:00:34;;;;;;;3.22;1.92;;;16.60;99.90;;;;;;4934867;29;20047;-85
2022/06/26 06:03:00;;;;;;;5.18;2.40;;;16.60;99.90;;;;;;4935556;29;20035;-85
2022/06/26 06:05:26;;;;;;;5.28;1.85;;;16.70;99.90;;;;;;4935423;29;20028;-84
2022/06/26 06:07:56;;;;;;;5.07;2.20;;;16.70;99.90;;;;;;4938143;29;20071;-85
2022/06/26 06:10:24;;;;;;;2.92;1.60;;;16.70;99.90;;;;;;4938710;29;20440;-85
2022/06/26 06:12:50;;;;;;;5.72;2.47;;;16.80;99.90;;;;;;4939006;29;20487;-84
2022/06/26 06:15:17;;;;;;;3.28;1.88;;;16.80;99.90;;;;;;4939070;29;20032;-84
2022/06/26 06:17:44;;;;;;;4.28;1.88;;;16.60;99.90;;;;;;4938717;29;20024;-84
2022/06/26 06:20:17;;;;;;;3.30;1.85;;;16.70;99.90;;;;;;4938975;29;20067;-84
2022/06/26 06:22:53;;;;;;;4.50;1.88;;;16.70;99.90;;;;;;4937215;29;20027;-84
2022/06/26 06:25:19;;;;;;;4.78;2.08;;;16.60;99.90;;;;;;4937158;29;20522;-84
2022/06/26 06:27:45;;;;;;;6.25;2.60;;;16.60;99.90;;;;;;4940149;29;20050;-85
2022/06/26 06:30:13;;;;;;;5.50;2.40;;;16.60;99.90;;;;;;4937732;29;20042;-85
2022/06/26 06:32:43;;;;;;;6.03;2.25;;;16.60;99.90;;;;;;4938059;29;20020;-85
2022/06/26 06:35:12;;;;;;;4.85;1.90;;;16.60;99.90;;;;;;4937001;29;20040;-85
2022/06/26 06:37:39;;;;;;;3.63;1.65;;;16.70;99.90;;;;;;4935526;29;20075;-86
2022/06/26 06:40:05;;;;;;;6.47;2.10;;;16.80;99.90;;;;;;4925521;29;20024;-85
2022/06/26 06:42:30;;;;;;;5.53;2.20;;;16.80;99.90;;;;;;4927574;29;20050;-85
2022/06/26 06:44:56;;;;;;;4.68;1.85;;;16.90;99.90;;;;;;4922686;29;20507;-86
2022/06/26 06:47:22;;;;;;;4.78;2.10;;;17.00;99.90;;;;;;4920179;29;20141;-85
2022/06/26 06:49:47;;;;;;;4.35;2.03;;;17.10;99.90;;;;;;4936606;29;20031;-85
2022/06/26 06:52:13;;;;;;;4.45;2.17;;;17.10;99.90;;;;;;4936886;29;20039;-84
2022/06/26 06:54:39;;;;;;;7.65;1.80;;;17.10;99.90;;;;;;4936488;29;20043;-85
2022/06/26 06:57:05;;;;;;;6.07;2.22;;;17.20;99.90;;;;;;4938559;29;20032;-85
2022/06/26 06:59:30;;;;;;;4.13;1.70;;;17.10;99.90;;;;;;4938323;29;20030;-85
2022/06/26 07:01:56;;;;;;;5.75;1.67;;;17.20;99.90;;;;;;4939784;29;20027;-85
2022/06/26 07:04:22;;;;;;;5.22;2.00;;;17.20;99.90;;;;;;4929600;29;20031;-86
2022/06/26 07:06:48;;;;;;;4.45;2.22;;;17.20;99.90;;;;;;4935892;29;20038;-85
2022/06/26 07:09:14;;;;;;;3.72;1.92;;;17.20;99.90;;;;;;4927658;29;20130;-86
2022/06/26 07:11:39;;;;;;;3.72;2.15;;;17.10;99.90;;;;;;4936298;29;20062;-85
2022/06/26 07:14:06;;;;;;;5.00;2.03;;;17.10;99.90;;;;;;4937152;29;20067;-85
2022/06/26 07:16:32;;;;;;;6.45;2.25;;;17.10;99.90;;;;;;4923142;29;20024;-85
2022/06/26 07:18:57;;;;;;;5.93;2.38;;;17.20;99.90;;;;;;4916755;29;20024;-86
2022/06/26 07:21:26;;;;;;;7.28;2.83;;;17.20;99.90;;;;;;4925341;29;20059;-85
2022/06/26 07:23:52;;;;;;;4.38;2.20;;;17.20;99.90;;;;;;4937749;29;20075;-86
2022/06/26 07:26:17;;;;;;;5.18;2.20;;;17.20;99.90;;;;;;4933162;29;20023;-87
2022/06/26 07:28:43;;;;;;;6.55;2.35;;;17.10;99.90;;;;;;4916281;29;20618;-87
2022/06/26 07:31:08;;;;;;;5.68;2.55;;;17.10;99.90;;;;;;4916389;29;20272;-85
2022/06/26 07:36:18;;;;;;;4.38;2.40;;;17.10;99.90;;;;;;4918477;29;20066;-79
2022/06/26 07:38:44;;;;;;;4.93;2.60;;;17.20;99.90;;;;;;4936552;29;20067;-78
2022/06/26 07:41:10;;;;;;;7.72;2.67;;;17.20;99.90;;;;;;4933582;29;20059;-85
2022/06/26 07:43:35;;;;;;;4.30;2.45;;;17.10;99.90;;;;;;4925042;29;20082;-86
2022/06/26 07:46:01;;;;;;;5.10;2.22;;;17.10;99.90;;;;;;4934381;29;20027;-85
2022/06/26 07:48:27;;;;;;;5.38;2.25;;;17.00;99.90;;;;;;4928673;29;20070;-86
2022/06/26 07:50:53;;;;;;;5.35;2.58;;;17.00;99.90;;;;;;4934100;29;20103;-81
2022/06/26 07:53:20;;;;;;;5.70;2.60;;;17.10;99.90;;;;;;4927388;29;20095;-83
2022/06/26 07:55:45;;;;;;;5.78;2.58;;;17.10;99.90;;;;;;4931276;29;20075;-85
2022/06/26 07:58:11;;;;;;;5.40;2.58;;;17.00;99.90;;;;;;4932717;29;20392;-82
2022/06/26 08:00:38;;;;;;;8.00;2.63;;;17.00;99.90;;;;;;4929688;29;20020;-82
2022/06/26 08:03:14;;;;;;;7.10;2.92;;;17.00;99.90;;;;;;4928924;29;20063;-81
2022/06/26 08:05:41;;;;;;;8.27;2.90;;;17.00;99.90;;;;;;4931311;29;20019;-80
2022/06/26 08:08:07;;;;;;;4.97;2.70;;;17.10;99.90;;;;;;4930692;29;20028;-81
2022/06/26 08:10:33;;;;;;;5.35;2.70;;;17.10;99.90;;;;;;4933279;29;20542;-80
2022/06/26 08:12:59;;;;;;;5.20;2.58;;;17.10;99.90;;;;;;4929747;29;20032;-78
2022/06/26 08:15:25;;;;;;;5.63;2.45;;;17.20;99.90;;;;;;4925566;29;20565;-80
2022/06/26 08:17:50;;;;;;;4.93;2.25;;;17.20;99.90;;;;;;4930928;29;20028;-80
2022/06/26 08:20:16;;;;;;;5.85;2.42;;;17.20;99.90;;;;;;4933976;29;20028;-79
2022/06/26 08:22:42;;;;;;;5.00;2.70;;;17.20;99.90;;;;;;4930814;29;20051;-79
2022/06/26 08:25:09;;;;;;;4.80;2.33;;;17.20;99.90;;;;;;4924599;29;20058;-81
2022/06/26 08:27:34;;;;;;;6.13;2.38;;;17.30;99.90;;;;;;4933902;29;20170;-80
2022/06/26 08:30:00;;;;;;;9.73;3.17;;;17.30;99.90;;;;;;4929824;29;20583;-80
2022/06/26 08:32:26;;;;;;;7.53;2.40;;;17.20;99.90;;;;;;4934016;29;20103;-80
2022/06/26 08:34:52;;;;;;;7.55;2.55;;;17.20;99.90;;;;;;4933395;29;20428;-80
2022/06/26 08:37:17;;;;;;;4.18;2.38;;;17.30;99.90;;;;;;4933947;29;20023;-80
2022/06/26 08:39:43;;;;;;;6.95;2.70;;;17.20;99.90;;;;;;4922799;29;20115;-76
2022/06/26 08:42:10;;;;;;;7.75;2.60;;;17.30;99.90;;;;;;4933012;29;20062;-82
2022/06/26 08:44:43;;;;;;;8.48;3.00;;;17.30;99.90;;;;;;4933610;29;20030;-80
2022/06/26 08:47:10;;;;;;;5.43;2.70;;;17.30;99.90;;;;;;4932199;29;20240;-80
2022/06/26 08:49:36;;;;;;;5.85;2.58;;;17.30;99.90;;;;;;4933289;29;20163;-83
2022/06/26 08:52:03;;;;;;;8.25;2.63;;;17.30;99.90;;;;;;4922168;29;20463;-80
2022/06/26 08:54:30;;;;;;;11.90;2.88;;;17.20;99.90;;;;;;4930964;29;20070;-83
2022/06/26 08:56:56;;;;;;;7.85;3.03;;;17.30;99.90;;;;;;4927829;29;20103;-82
2022/06/26 08:59:22;;;;;;;5.57;2.88;;;17.20;99.90;;;;;;4931659;29;20106;-81
2022/06/26 09:01:48;;;;;;;6.93;2.78;;;17.30;99.90;;;;;;4928617;29;20277;-84
2022/06/26 09:04:15;;;;;;;6.38;2.33;;;17.30;99.90;;;;;;4931854;29;20024;-80
2022/06/26 09:06:42;;;;;;;5.30;2.60;;;17.30;99.90;;;;;;4933263;29;20030;-81
2022/06/26 09:09:18;;;;;;;5.97;2.25;;;17.20;99.90;;;;;;4926332;29;20024;-84
2022/06/26 09:11:45;;;;;;;6.57;2.22;;;17.30;99.90;;;;;;4930466;29;20028;-81
2022/06/26 09:14:12;;;;;;;6.97;2.13;;;17.30;99.90;;;;;;4931730;29;20123;-81
2022/06/26 09:16:41;;;;;;;3.67;1.90;;;17.30;99.90;;;;;;4932377;29;20020;-80
2022/06/26 09:19:10;;;;;;;4.57;1.80;;;17.40;99.90;;;;;;4924335;29;20026;-81
2022/06/26 09:21:37;;;;;;;4.70;1.70;;;17.40;99.90;;;;;;4931082;29;20484;-80
2022/06/26 09:24:03;;;;;;;4.47;2.33;;;17.30;99.90;;;;;;4922627;29;20028;-80
2022/06/26 09:26:29;;;;;;;5.68;2.15;;;17.40;99.90;;;;;;4933127;29;20570;-81
2022/06/26 09:28:54;;;;;;;3.65;2.25;;;17.40;99.90;;;;;;4934778;29;20027;-80
2022/06/26 09:31:21;;;;;;;7.57;2.13;;;17.30;99.90;;;;;;4933010;29;20035;-83
2022/06/26 09:33:47;;;;;;;4.65;1.90;;;17.30;99.90;;;;;;4930478;29;20027;-78
2022/06/26 09:36:16;;;;;;;4.60;1.80;;;17.20;99.90;;;;;;4931831;29;20087;-80
2022/06/26 09:38:48;;;;;;;3.83;1.83;;;17.20;99.90;;;;;;4929075;29;20448;-77
2022/06/26 09:41:14;;;;;;;3.90;1.85;;;17.30;99.90;;;;;;4926622;29;20023;-79
2022/06/26 09:43:45;;;;;;;8.32;2.25;;;17.40;99.90;;;;;;4934871;29;20031;-79
2022/06/26 09:46:13;;;;;;;2.47;1.80;;;17.40;99.90;;;;;;4931478;29;20032;-79
2022/06/26 09:48:40;;;;;;;1.90;1.40;;;17.50;99.90;;;;;;4920912;29;20023;-79
2022/06/26 09:51:12;;;;;;;4.00;1.50;;;17.50;99.90;;;;;;4933545;29;20067;-81
2022/06/26 09:53:38;;;;;;;;;;;17.50;99.90;;;;;;4927315;29;20016;-81
2022/06/26 09:56:07;;;;;;;4.00;1.70;;;17.60;99.90;;;;;;4930636;29;19950;-81
2022/06/26 09:58:33;;;;;;;4.18;1.63;;;17.60;99.90;;;;;;4922067;29;20111;-83
2022/06/26 10:06:31;;;;;;;2.00;1.50;;;17.80;99.90;;;;;;4935740;29;20058;-81
2022/06/26 10:08:58;;;;;;;3.10;1.75;;;17.90;99.90;;;;;;4933709;29;20032;-81
2022/06/26 10:11:27;;;;;;;5.20;1.85;;;18.10;99.90;;;;;;4934986;29;20038;-80
2022/06/26 10:14:00;;;;;;;3.67;2.00;;;18.30;99.90;;;;;;4931101;29;20048;-83
2022/06/26 10:16:34;;;;;;;3.53;1.75;;;18.70;99.90;;;;;;4928805;29;20066;-80
2022/06/26 10:19:16;;;;;;;4.45;1.85;;;19.30;99.90;;;;;;4933741;29;20051;-79
2022/06/26 10:21:42;;;;;;;6.43;1.80;;;20.20;99.90;;;;;;4935153;29;20039;-79
2022/06/26 10:24:08;;;;;;;3.00;1.73;;;20.20;99.90;;;;;;4935032;29;20031;-80
2022/06/26 10:26:35;;;;;;;3.17;1.90;;;20.00;99.90;;;;;;4933717;29;20519;-79
2022/06/26 10:29:09;;;;;;;4.05;1.88;;;19.70;99.90;;;;;;4933953;29;20035;-79
2022/06/26 10:31:49;;;;;;;2.60;1.80;;;19.70;99.90;;;;;;4931931;29;20027;-79
2022/06/26 10:34:20;;;;;;;6.88;2.08;;;19.30;99.90;;;;;;4925182;29;20035;-77
2022/06/26 10:37:04;;;;;;;3.22;1.95;;;19.20;99.90;;;;;;4934429;29;20484;-77
2022/06/26 10:39:42;;;;;;;5.90;2.25;;;19.00;99.90;;;;;;4935108;29;20028;-79
2022/06/26 10:45:28;;;;;;;6.38;1.70;;;18.90;99.90;;;;;;4923441;29;20087;-81
2022/06/26 10:47:56;;;;;;;4.90;1.63;;;19.20;99.90;;;;;;4928034;29;20031;-82
2022/06/26 10:50:33;;;;;;;7.63;2.05;;;19.20;99.90;;;;;;4922919;29;20024;-79
2022/06/26 10:53:13;;;;;;;4.18;1.70;;;19.20;99.90;;;;;;4929464;29;20026;-82
2022/06/26 10:55:40;;;;;;;3.22;2.00;;;19.20;99.90;;;;;;4918168;29;20047;-82
2022/06/26 10:58:06;;;;;;;3.95;1.85;;;19.20;99.90;;;;;;4922808;29;20024;-82
2022/06/26 11:00:33;;;;;;;3.08;1.85;;;19.10;99.90;;;;;;4928104;29;20510;-82
2022/06/26 11:02:59;;;;;;;7.50;2.90;;;19.00;99.90;;;;;;4929624;29;20114;-79
2022/06/26 11:05:28;;;;;;;2.83;1.77;;;19.10;99.90;;;;;;4930681;29;20030;-76
2022/06/26 11:07:53;;;;;;;7.82;2.10;;;19.20;99.90;;;;;;4932178;29;20502;-81
2022/06/26 11:10:22;;;;;;;6.38;2.35;;;19.20;99.90;;;;;;4926155;29;20056;-77
2022/06/26 11:12:52;;;;;;;4.35;2.33;;;19.30;99.90;;;;;;4929420;29;20031;-80
2022/06/26 11:15:26;;;;;;;3.72;1.92;;;19.50;99.90;;;;;;4924534;29;20040;-80
2022/06/26 11:18:03;;;;;;;5.22;1.80;;;19.40;99.90;;;;;;4937469;29;20024;-81
2022/06/26 11:20:51;;;;;;;4.45;2.10;;;19.40;99.90;;;;;;4936438;29;20781;-80
2022/06/26 11:23:26;;;;;;;3.83;2.00;;;19.40;99.90;;;;;;4928684;29;20111;-81
2022/06/26 11:25:57;;;;;;;5.28;2.05;;;19.40;99.90;;;;;;4917087;29;20035;-80
2022/06/26 11:28:31;;;;;;;3.35;2.35;;;19.20;99.90;;;;;;4919904;29;20036;-81
2022/06/26 11:30:58;;;;;;;8.63;4.00;;;19.20;99.90;;;;;;4928560;29;20024;-80
2022/06/26 11:33:29;;;;;;;7.93;4.55;;;19.10;99.90;;;;;;4924411;29;20036;-80
2022/06/26 11:36:00;;;;;;;5.65;3.40;;;19.30;99.90;;;;;;4924536;29;20103;-81
2022/06/26 11:38:27;;;;;;;6.10;2.60;;;19.30;99.90;;;;;;4921792;29;20023;-81
2022/06/26 11:40:57;;;;;;;4.95;1.88;;;19.40;99.90;;;;;;4936733;29;20052;-79
2022/06/26 11:43:23;;;;;;;6.38;2.28;;;19.40;99.90;;;;;;4936756;29;20041;-81
2022/06/26 11:45:49;;;;;;;5.10;2.00;;;19.70;99.90;;;;;;4937306;29;20152;-80
2022/06/26 11:48:17;;;;;;;3.10;1.88;;;19.70;99.90;;;;;;4934560;29;20032;-81
2022/06/26 11:50:45;;;;;;;3.60;1.80;;;19.90;99.90;;;;;;4937490;29;20036;-81
2022/06/26 11:53:18;;;;;;;4.28;1.60;;;20.00;99.90;;;;;;4937365;29;20063;-81
2022/06/26 11:55:50;;;;;;;3.63;1.80;;;19.90;99.90;;;;;;4936641;29;20027;-81
2022/06/26 11:58:17;;;;;;;2.97;1.65;;;19.80;99.90;;;;;;4934027;29;20527;-82
2022/06/26 12:00:44;;;;;;;3.50;1.77;;;19.90;99.90;;;;;;4935459;29;20035;-81
2022/06/26 12:03:14;;;;;;;2.80;1.88;;;19.70;99.90;;;;;;4943653;29;20030;-81
2022/06/26 12:05:42;;;;;;;2.33;1.42;;;19.60;99.90;;;;;;4932188;28;20091;-81
2022/06/26 12:08:18;;;;;;;4.50;2.45;;;19.60;99.90;;;;;;4924299;29;20030;-80
2022/06/26 12:10:51;;;;;;;4.45;1.63;;;19.70;99.90;;;;;;4936542;29;20059;-81
2022/06/26 12:13:33;;;;;;;4.72;2.80;;;19.70;99.90;;;;;;4923520;29;20551;-81
2022/06/26 12:16:06;;;;;;;22.67;10.50;;;19.80;99.90;;;;;;4931258;29;20496;-81
2022/06/26 12:18:38;;;;;;;34.78;15.75;;;19.70;99.90;;;;;;4926892;29;20052;-80
2022/06/26 12:21:15;;;;;;;17.73;8.10;;;19.90;99.90;;;;;;4922977;29;20016;-80
2022/06/26 12:23:45;;;;;;;11.40;5.90;;;20.00;99.90;;;;;;4927528;29;20031;-81
2022/06/26 12:26:13;;;;;;;29.05;14.43;;;19.90;99.90;;;;;;4928606;29;20508;-81
2022/06/26 12:28:47;;;;;;;7.47;4.10;;;20.00;99.90;;;;;;4925012;29;20110;-81
2022/06/26 12:31:15;;;;;;;5.97;2.50;;;20.00;99.90;;;;;;4925036;29;20024;-81
2022/06/26 12:33:41;;;;;;;7.80;3.22;;;19.80;99.90;;;;;;4933570;29;20020;-81
2022/06/26 12:36:07;;;;;;;3.40;1.67;;;19.80;99.90;;;;;;4935859;29;20130;-81
2022/06/26 12:38:36;;;;;;;6.72;1.85;;;19.80;99.90;;;;;;4934937;29;20024;-81
2022/06/26 12:41:03;;;;;;;3.72;1.52;;;19.70;99.90;;;;;;4936732;29;20062;-81
2022/06/26 12:43:29;;;;;;;3.08;1.50;;;19.70;99.90;;;;;;4935382;29;20055;-81
2022/06/26 12:45:54;;;;;;;6.80;2.15;;;19.60;99.90;;;;;;4917269;29;20059;-81
2022/06/26 12:48:20;;;;;;;6.47;2.00;;;19.70;99.90;;;;;;4917755;29;20024;-81
2022/06/26 12:50:46;;;;;;;4.38;2.50;;;19.70;99.90;;;;;;4917239;29;20032;-83
2022/06/26 12:53:12;;;;;;;3.25;1.90;;;19.50;99.90;;;;;;4917059;29;20051;-84
2022/06/26 12:55:38;;;;;;;4.82;2.42;;;19.40;99.90;;;;;;4917056;29;20028;-83
2022/06/26 12:58:04;;;;;;;9.32;3.72;;;19.40;99.90;;;;;;4917297;29;20024;-82
2022/06/26 13:00:29;;;;;;;6.70;3.25;;;19.30;99.90;;;;;;4917126;29;20027;-83
2022/06/26 13:02:55;;;;;;;6.50;3.25;;;19.20;99.90;;;;;;4916903;29;20094;-83
2022/06/26 13:05:21;;;;;;;7.93;3.17;;;19.20;99.90;;;;;;4917125;29;20139;-83